createdAt,value
2019-02-02T00:02:26.369Z,22.25
2019-02-02T00:04:56.701Z,25.90
2019-02-02T00:07:27.064Z,24.98
2019-02-02T00:09:57.437Z,24.12
2019-02-02T00:12:27.793Z,25.45
2019-02-02T00:14:58.170Z,21.05
2019-02-02T00:17:28.568Z,22.90
2019-02-02T00:19:58.913Z,25.15
2019-02-02T00:22:29.273Z,27.50
2019-02-02T00:24:59.622Z,21.62
2019-02-02T00:27:40.838Z,19.70
2019-02-02T00:30:02.078Z,20.62
2019-02-02T00:32:32.520Z,22.05
2019-02-02T00:35:02.912Z,22.80
2019-02-02T00:37:33.312Z,31.73
2019-02-02T00:40:04.351Z,40.17
2019-02-02T00:42:34.731Z,28.77
2019-02-02T00:45:06.449Z,21.23
2019-02-02T00:47:36.795Z,24.18
2019-02-02T00:50:07.574Z,25.37
2019-02-02T00:52:37.937Z,23.20
2019-02-02T00:55:08.794Z,26.57
2019-02-02T00:57:39.153Z,22.93
2019-02-02T01:00:11.982Z,24.05
2019-02-02T01:02:42.362Z,22.70
2019-02-02T01:05:15.062Z,24.92
2019-02-02T01:07:45.430Z,26.55
2019-02-02T01:10:21.806Z,23.42
2019-02-02T01:12:52.173Z,26.52
2019-02-02T01:15:22.713Z,21.45
2019-02-02T01:17:53.073Z,26.93
2019-02-02T01:20:24.045Z,25.37
2019-02-02T01:22:54.481Z,22.80
2019-02-02T01:25:24.877Z,23.60
2019-02-02T01:28:05.014Z,22.80
2019-02-02T01:30:27.435Z,24.60
2019-02-02T01:32:57.806Z,29.63
2019-02-02T01:35:28.198Z,28.47
2019-02-02T01:37:58.564Z,24.77
2019-02-02T01:40:28.990Z,22.75
2019-02-02T01:42:59.398Z,24.05
2019-02-02T01:45:30.245Z,27.73
2019-02-02T01:48:00.736Z,23.85
2019-02-02T01:50:33.065Z,27.55
2019-02-02T01:53:08.645Z,25.55
2019-02-02T01:55:39.205Z,27.07
2019-02-02T01:58:16.991Z,26.48
2019-02-02T02:00:43.592Z,44.70
2019-02-02T02:03:13.961Z,27.65
2019-02-02T02:05:44.386Z,29.10
2019-02-02T02:08:14.733Z,23.42
2019-02-02T02:10:45.091Z,18.65
2019-02-02T02:13:15.448Z,17.10
2019-02-02T02:15:45.821Z,17.48
2019-02-02T02:18:16.194Z,17.45
2019-02-02T02:20:46.574Z,18.37
2019-02-02T02:23:16.933Z,20.23
2019-02-02T02:25:47.330Z,18.27
2019-02-02T02:28:27.895Z,19.17
2019-02-02T02:30:49.723Z,15.95
2019-02-02T02:33:20.107Z,18.10
2019-02-02T02:35:50.479Z,19.10
2019-02-02T02:38:20.890Z,21.30
2019-02-02T02:40:51.241Z,18.07
2019-02-02T02:43:21.600Z,17.70
2019-02-02T02:45:51.937Z,21.15
2019-02-02T02:48:22.301Z,18.75
2019-02-02T02:50:52.664Z,17.70
2019-02-02T02:53:23.041Z,20.40
2019-02-02T02:55:53.389Z,21.48
2019-02-02T02:58:23.757Z,20.68
2019-02-02T03:00:54.116Z,19.15
2019-02-02T03:03:24.514Z,17.55
2019-02-02T03:05:54.861Z,20.68
2019-02-02T03:08:25.209Z,16.42
2019-02-02T03:10:55.575Z,17.50
2019-02-02T03:13:25.946Z,17.95
2019-02-02T03:15:56.301Z,21.30
2019-02-02T03:18:26.772Z,20.08
2019-02-02T03:20:57.114Z,19.30
2019-02-02T03:23:27.485Z,14.63
2019-02-02T03:25:57.845Z,18.27
2019-02-02T03:28:28.213Z,18.75
2019-02-02T03:30:58.579Z,16.62
2019-02-02T03:33:29.223Z,16.85
2019-02-02T03:35:59.563Z,15.98
2019-02-02T03:38:29.921Z,15.43
2019-02-02T03:41:00.297Z,20.77
2019-02-02T03:43:30.656Z,25.27
2019-02-02T03:46:01.018Z,17.95
2019-02-02T03:48:31.381Z,19.20
2019-02-02T03:51:01.762Z,18.25
2019-02-02T03:53:32.123Z,21.80
2019-02-02T03:56:02.479Z,23.83
2019-02-02T03:58:33.043Z,19.35
2019-02-02T04:01:03.405Z,19.90
2019-02-02T04:03:33.761Z,17.70
2019-02-02T04:06:04.114Z,21.68
2019-02-02T04:08:34.472Z,22.20
2019-02-02T04:11:04.855Z,25.30
2019-02-02T04:13:35.192Z,20.50
2019-02-02T04:16:05.555Z,22.90
2019-02-02T04:18:35.913Z,23.30
2019-02-02T04:21:06.273Z,19.37
2019-02-02T04:23:36.636Z,23.02
2019-02-02T04:26:07.020Z,20.88
2019-02-02T04:28:37.361Z,15.95
2019-02-02T04:31:07.706Z,18.95
2019-02-02T04:33:38.078Z,20.62
2019-02-02T04:36:08.457Z,20.23
2019-02-02T04:38:38.815Z,19.50
2019-02-02T04:41:09.155Z,17.52
2019-02-02T04:43:39.518Z,22.02
2019-02-02T04:46:09.864Z,19.98
2019-02-02T04:48:40.221Z,22.15
2019-02-02T04:51:10.571Z,20.35
2019-02-02T04:53:40.934Z,17.87
2019-02-02T04:56:11.307Z,19.17
2019-02-02T04:58:41.687Z,20.25
2019-02-02T05:01:12.029Z,20.40
2019-02-02T05:03:42.390Z,18.42
2019-02-02T05:06:12.747Z,18.10
2019-02-02T05:08:43.109Z,17.48
2019-02-02T05:11:13.457Z,18.70
2019-02-02T05:13:43.822Z,19.32
2019-02-02T05:16:14.193Z,18.17
2019-02-02T05:18:44.747Z,16.77
2019-02-02T05:21:15.103Z,18.37
2019-02-02T05:23:45.485Z,17.35
2019-02-02T05:26:15.830Z,17.00
2019-02-02T05:28:46.193Z,21.97
2019-02-02T05:31:16.534Z,20.65
2019-02-02T05:33:46.893Z,23.65
2019-02-02T05:36:17.256Z,17.35
2019-02-02T05:38:47.697Z,21.52
2019-02-02T05:41:18.060Z,23.18
2019-02-02T05:43:48.427Z,21.50
2019-02-02T05:46:18.785Z,18.10
2019-02-02T05:48:49.138Z,20.00
2019-02-02T05:51:19.529Z,20.10
2019-02-02T05:53:49.885Z,21.77
2019-02-02T05:56:20.241Z,21.33
2019-02-02T05:58:50.591Z,20.80
2019-02-02T06:01:21.494Z,18.57
2019-02-02T06:03:51.995Z,20.82
2019-02-02T06:06:22.402Z,17.77
2019-02-02T06:08:52.862Z,20.12
2019-02-02T06:11:23.223Z,19.07
2019-02-02T06:13:53.585Z,20.92
2019-02-02T06:16:23.949Z,22.00
2019-02-02T06:18:54.295Z,26.10
2019-02-02T06:21:24.680Z,19.27
2019-02-02T06:23:55.047Z,24.77
2019-02-02T06:26:25.425Z,24.40
2019-02-02T06:28:55.782Z,21.45
2019-02-02T06:31:26.200Z,20.52
2019-02-02T06:33:56.591Z,19.70
2019-02-02T06:36:27.017Z,20.82
2019-02-02T06:38:57.480Z,24.15
2019-02-02T06:41:27.971Z,22.62
2019-02-02T06:43:58.434Z,23.95
2019-02-02T06:46:28.840Z,22.05
2019-02-02T06:49:01.446Z,19.67
2019-02-02T06:51:31.314Z,19.52
2019-02-02T06:54:01.765Z,23.38
2019-02-02T06:56:32.154Z,24.12
2019-02-02T06:59:02.690Z,23.05
2019-02-02T07:01:33.089Z,19.10
2019-02-02T07:04:03.526Z,20.80
2019-02-02T07:06:34.028Z,21.77
2019-02-02T07:09:06.374Z,19.80
2019-02-02T07:11:36.849Z,23.20
2019-02-02T07:14:07.246Z,22.15
2019-02-02T07:16:37.762Z,22.50
2019-02-02T07:19:08.232Z,24.32
2019-02-02T07:21:38.661Z,21.77
2019-02-02T07:24:09.101Z,19.98
2019-02-02T07:26:39.549Z,21.68
2019-02-02T07:29:09.950Z,21.65
2019-02-02T07:31:40.346Z,19.27
2019-02-02T07:34:10.788Z,22.73
2019-02-02T07:36:41.179Z,22.67
2019-02-02T07:39:11.586Z,20.17
2019-02-02T07:41:41.945Z,20.70
2019-02-02T07:44:12.340Z,21.10
2019-02-02T07:46:42.718Z,22.20
2019-02-02T07:49:13.097Z,18.65
2019-02-02T07:51:43.526Z,21.57
2019-02-02T07:54:14.003Z,25.05
2019-02-02T07:56:49.518Z,22.13
2019-02-02T07:59:19.928Z,24.00
2019-02-02T08:01:50.302Z,19.67
2019-02-02T08:04:20.756Z,18.37
2019-02-02T08:06:51.253Z,19.00
2019-02-02T08:09:21.674Z,20.25
2019-02-02T08:11:52.062Z,22.17
2019-02-02T08:14:22.494Z,20.88
2019-02-02T08:16:52.941Z,97.62
2019-02-02T08:19:25.595Z,24.90
2019-02-02T08:21:55.433Z,29.12
2019-02-02T08:24:25.875Z,29.82
2019-02-02T08:26:56.295Z,23.83
2019-02-02T08:29:26.690Z,29.10
2019-02-02T08:31:57.090Z,32.15
2019-02-02T08:34:27.534Z,31.75
2019-02-02T08:36:58.010Z,27.22
2019-02-02T08:39:29.526Z,21.40
2019-02-02T08:42:00.123Z,25.02
2019-02-02T08:44:30.510Z,22.55
2019-02-02T08:47:00.975Z,19.70
2019-02-02T08:49:31.390Z,21.33
2019-02-02T08:52:01.822Z,24.60
2019-02-02T08:54:32.337Z,15.98
2019-02-02T08:57:02.837Z,12.85
2019-02-02T08:59:35.122Z,13.58
2019-02-02T09:02:05.760Z,11.83
2019-02-02T09:04:36.270Z,10.30
2019-02-02T09:07:06.732Z,10.88
2019-02-02T09:09:37.231Z,12.43
2019-02-02T09:12:07.715Z,11.63
2019-02-02T09:14:38.170Z,11.03
2019-02-02T09:17:08.659Z,12.05
2019-02-02T09:19:39.055Z,10.88
2019-02-02T09:22:09.484Z,8.70
2019-02-02T09:24:39.893Z,7.08
2019-02-02T09:27:10.303Z,8.50
2019-02-02T09:29:40.692Z,7.12
2019-02-02T09:32:11.111Z,8.55
2019-02-02T09:34:41.531Z,8.00
2019-02-02T09:37:11.936Z,9.58
2019-02-02T09:39:42.310Z,12.20
2019-02-02T09:42:12.734Z,7.62
2019-02-02T09:44:43.156Z,8.43
2019-02-02T09:47:13.558Z,9.55
2019-02-02T09:49:43.939Z,10.75
2019-02-02T09:52:14.445Z,11.70
2019-02-02T09:54:44.834Z,13.90
2019-02-02T09:57:17.143Z,12.82
2019-02-02T09:59:47.371Z,7.42
2019-02-02T10:02:17.806Z,9.13
2019-02-02T10:04:48.219Z,9.15
2019-02-02T10:07:18.585Z,10.13
2019-02-02T10:09:48.986Z,8.75
2019-02-02T10:12:21.149Z,7.25
2019-02-02T10:14:51.731Z,8.18
2019-02-02T10:17:22.175Z,9.33
2019-02-02T10:19:52.583Z,8.70
2019-02-02T10:22:22.974Z,9.20
2019-02-02T10:24:53.452Z,8.53
2019-02-02T10:27:23.904Z,9.15
2019-02-02T10:29:54.297Z,7.80
2019-02-02T10:32:24.773Z,8.13
2019-02-02T10:34:55.230Z,4.80
2019-02-02T10:37:25.639Z,4.50
2019-02-02T10:39:57.450Z,3.93
2019-02-02T10:42:27.839Z,3.03
2019-02-02T10:44:58.221Z,4.63
2019-02-02T10:47:28.660Z,2.90
2019-02-02T10:49:59.067Z,4.23
2019-02-02T10:52:29.477Z,4.70
2019-02-02T10:54:59.878Z,3.97
2019-02-02T10:57:30.258Z,3.23
2019-02-02T11:00:00.647Z,3.00
2019-02-02T11:02:31.052Z,3.77
2019-02-02T11:05:01.603Z,5.22
2019-02-02T11:07:32.091Z,3.70
2019-02-02T11:10:02.719Z,4.57
2019-02-02T11:12:33.227Z,6.62
2019-02-02T11:15:04.930Z,4.75
2019-02-02T11:17:35.903Z,3.90
2019-02-02T11:20:08.523Z,3.80
2019-02-02T11:22:39.088Z,3.93
2019-02-02T11:25:10.375Z,3.33
2019-02-02T11:27:41.128Z,2.37
2019-02-02T11:30:13.348Z,3.10
2019-02-02T11:32:44.474Z,2.77
2019-02-02T11:35:15.689Z,2.67
2019-02-02T11:37:46.148Z,3.47
2019-02-02T11:40:35.347Z,2.57
2019-02-02T11:43:06.109Z,2.40
2019-02-02T11:45:36.525Z,2.80
2019-02-02T11:48:06.934Z,2.87
2019-02-02T11:50:37.335Z,1.93
2019-02-02T11:53:07.867Z,1.70
2019-02-02T11:55:38.281Z,1.90
2019-02-02T11:58:08.712Z,2.80
2019-02-02T12:00:43.207Z,4.10
2019-02-02T12:03:13.683Z,2.97
2019-02-02T12:05:44.165Z,2.33
2019-02-02T12:08:14.639Z,2.90
2019-02-02T12:10:45.035Z,1.93
2019-02-02T12:13:15.551Z,2.20
2019-02-02T12:15:45.998Z,3.30
2019-02-02T12:18:16.413Z,3.57
2019-02-02T12:20:46.806Z,3.83
2019-02-02T12:23:17.224Z,7.53
2019-02-02T12:25:47.617Z,3.30
2019-02-02T12:28:18.015Z,2.90
2019-02-02T12:30:48.406Z,2.63
2019-02-02T12:33:18.823Z,2.70
2019-02-02T12:35:49.189Z,2.77
2019-02-02T12:38:19.607Z,3.70
2019-02-02T12:40:49.981Z,3.80
2019-02-02T12:43:20.397Z,2.60
2019-02-02T12:45:53.146Z,2.67
2019-02-02T12:48:23.747Z,2.03
2019-02-02T12:50:54.162Z,3.00
2019-02-02T12:53:24.535Z,1.80
2019-02-02T12:55:54.982Z,1.90
2019-02-02T12:58:25.358Z,1.40
2019-02-02T13:00:55.754Z,2.70
2019-02-02T13:03:26.154Z,2.80
2019-02-02T13:05:56.625Z,3.03
2019-02-02T13:08:27.076Z,4.13
2019-02-02T13:10:57.489Z,5.47
2019-02-02T13:13:27.893Z,3.00
2019-02-02T13:15:58.301Z,3.00
2019-02-02T13:18:28.723Z,3.00
2019-02-02T13:20:59.148Z,3.47
2019-02-02T13:23:29.619Z,9.48
2019-02-02T13:26:05.549Z,3.47
2019-02-02T13:28:32.110Z,2.70
2019-02-02T13:31:02.549Z,2.40
2019-02-02T13:33:32.950Z,4.12
2019-02-02T13:36:03.379Z,3.25
2019-02-02T13:38:33.842Z,2.70
2019-02-02T13:41:04.222Z,2.10
2019-02-02T13:43:34.621Z,2.50
2019-02-02T13:46:05.133Z,2.30
2019-02-02T13:48:35.524Z,2.30
2019-02-02T13:51:06.274Z,8.58
2019-02-02T13:53:36.674Z,9.80
2019-02-02T13:56:07.085Z,11.25
2019-02-02T13:58:37.534Z,12.50
2019-02-02T14:01:07.934Z,11.05
2019-02-02T14:03:38.746Z,11.43
2019-02-02T14:06:09.206Z,11.78
2019-02-02T14:08:39.622Z,10.95
2019-02-02T14:11:10.022Z,10.20
2019-02-02T14:13:40.436Z,10.20
2019-02-02T14:16:10.856Z,11.20
2019-02-02T14:18:41.347Z,11.18
2019-02-02T14:21:11.742Z,9.43
2019-02-02T14:23:42.157Z,10.43
2019-02-02T14:26:12.553Z,9.90
2019-02-02T14:28:42.942Z,10.82
2019-02-02T14:31:13.310Z,10.18
2019-02-02T14:33:43.741Z,11.18
2019-02-02T14:36:14.162Z,10.58
2019-02-02T14:38:44.586Z,10.23
2019-02-02T14:41:15.032Z,12.10
2019-02-02T14:43:45.444Z,10.93
2019-02-02T14:46:15.857Z,12.35
2019-02-02T14:48:46.312Z,14.20
2019-02-02T14:51:16.703Z,10.95
2019-02-02T14:53:47.082Z,11.65
2019-02-02T14:56:17.469Z,13.55
2019-02-02T14:58:47.857Z,11.38
2019-02-02T15:01:18.264Z,11.22
2019-02-02T15:03:48.688Z,10.45
2019-02-02T15:06:19.114Z,11.85
2019-02-02T15:08:49.595Z,11.55
2019-02-02T15:11:19.999Z,12.45
2019-02-02T15:13:50.610Z,15.32
2019-02-02T15:16:21.134Z,15.70
2019-02-02T15:18:51.566Z,15.90
2019-02-02T15:21:21.983Z,14.83
2019-02-02T15:23:52.394Z,16.07
2019-02-02T15:26:22.767Z,16.25
2019-02-02T15:28:53.157Z,15.50
2019-02-02T15:31:23.623Z,13.30
2019-02-02T15:33:54.051Z,15.08
2019-02-02T15:36:24.455Z,14.58
2019-02-02T15:38:54.853Z,12.53
2019-02-02T15:41:25.345Z,12.85
2019-02-02T15:43:55.771Z,13.08
2019-02-02T15:46:26.199Z,14.15
2019-02-02T15:48:56.589Z,15.50
2019-02-02T15:51:26.985Z,14.58
2019-02-02T15:53:57.357Z,12.58
2019-02-02T15:56:27.822Z,12.45
2019-02-02T15:58:58.237Z,17.90
2019-02-02T16:01:28.630Z,16.02
2019-02-02T16:03:59.001Z,13.38
2019-02-02T16:06:29.461Z,15.25
2019-02-02T16:08:59.851Z,16.62
2019-02-02T16:11:30.332Z,14.33
2019-02-02T16:14:00.757Z,16.10
2019-02-02T16:16:31.171Z,18.12
2019-02-02T16:19:01.534Z,15.60
2019-02-02T16:21:31.922Z,14.58
2019-02-02T16:24:02.334Z,14.25
2019-02-02T16:26:32.738Z,14.58
2019-02-02T16:29:03.111Z,14.75
2019-02-02T16:31:33.559Z,13.05
2019-02-02T16:34:05.221Z,17.32
2019-02-02T16:36:35.659Z,15.78
2019-02-02T16:39:08.855Z,16.17
2019-02-02T16:41:39.276Z,18.17
2019-02-02T16:44:09.695Z,18.00
2019-02-02T16:46:40.119Z,17.98
2019-02-02T16:49:10.501Z,19.25
2019-02-02T16:51:40.899Z,20.82
2019-02-02T16:54:11.292Z,21.35
2019-02-02T16:56:41.670Z,20.02
2019-02-02T16:59:12.052Z,20.25
2019-02-02T17:01:42.542Z,17.00
2019-02-02T17:04:15.938Z,18.30
2019-02-02T17:06:45.003Z,14.65
2019-02-02T17:09:15.419Z,19.52
2019-02-02T17:11:46.005Z,16.40
2019-02-02T17:14:17.946Z,15.38
2019-02-02T17:16:48.502Z,17.42
2019-02-02T17:19:18.919Z,17.95
2019-02-02T17:21:49.301Z,38.40
2019-02-02T17:24:19.794Z,22.27
2019-02-02T17:26:50.186Z,17.60
2019-02-02T17:29:20.576Z,24.25
2019-02-02T17:31:51.070Z,26.42
2019-02-02T17:34:27.349Z,17.77
2019-02-02T17:36:53.602Z,18.15
2019-02-02T17:39:24.025Z,18.05
2019-02-02T17:41:54.432Z,19.02
2019-02-02T17:44:24.878Z,20.32
2019-02-02T17:46:55.264Z,18.25
2019-02-02T17:49:25.651Z,19.70
2019-02-02T17:51:56.123Z,16.93
2019-02-02T17:54:26.557Z,17.70
2019-02-02T17:56:56.934Z,20.45
2019-02-02T17:59:29.985Z,18.98
2019-02-02T18:01:59.526Z,15.15
2019-02-02T18:04:39.209Z,15.48
2019-02-02T18:07:02.236Z,16.90
2019-02-02T18:09:32.646Z,17.25
2019-02-02T18:12:03.057Z,16.42
2019-02-02T18:14:33.469Z,18.48
2019-02-02T18:17:03.941Z,19.25
2019-02-02T18:19:34.368Z,18.73
2019-02-02T18:22:04.758Z,21.70
2019-02-02T18:24:35.169Z,18.98
2019-02-02T18:27:05.574Z,20.35
2019-02-02T18:29:36.068Z,19.85
2019-02-02T18:32:13.128Z,16.05
2019-02-02T18:34:49.926Z,19.45
2019-02-02T18:37:10.928Z,21.97
2019-02-02T18:39:41.302Z,18.25
2019-02-02T18:42:11.787Z,23.62
2019-02-02T18:44:42.205Z,24.12
2019-02-02T18:47:12.670Z,22.15
2019-02-02T18:49:43.067Z,23.42
2019-02-02T18:52:13.518Z,23.07
2019-02-02T18:54:43.912Z,22.67
2019-02-02T18:57:15.508Z,20.40
2019-02-02T18:59:45.904Z,19.90
2019-02-02T19:02:16.359Z,22.77
2019-02-02T19:04:46.770Z,25.08
2019-02-02T19:07:17.201Z,22.90
2019-02-02T19:09:47.606Z,27.85
2019-02-02T19:12:18.026Z,23.20
2019-02-02T19:14:48.453Z,20.97
2019-02-02T19:17:18.897Z,28.17
2019-02-02T19:19:49.304Z,25.10
2019-02-02T19:22:19.726Z,25.48
2019-02-02T19:24:50.174Z,22.60
2019-02-02T19:27:20.651Z,23.60
2019-02-02T19:29:51.056Z,24.77
2019-02-02T19:32:21.455Z,25.80
2019-02-02T19:34:51.978Z,23.18
2019-02-02T19:37:22.376Z,25.30
2019-02-02T19:39:52.764Z,21.90
2019-02-02T19:42:23.282Z,24.00
2019-02-02T19:44:53.701Z,22.45
2019-02-02T19:47:24.114Z,23.77
2019-02-02T19:49:54.534Z,25.32
2019-02-02T19:52:24.937Z,25.57
2019-02-02T19:54:55.359Z,22.67
2019-02-02T19:57:25.716Z,25.62
2019-02-02T19:59:56.228Z,22.82
2019-02-02T20:02:26.594Z,25.17
2019-02-02T20:04:56.995Z,22.60
2019-02-02T20:07:27.426Z,31.73
2019-02-02T20:09:57.848Z,23.90
2019-02-02T20:12:28.222Z,23.80
2019-02-02T20:14:58.640Z,30.10
2019-02-02T20:17:29.044Z,23.73
2019-02-02T20:19:59.452Z,28.02
2019-02-02T20:22:29.878Z,26.60
2019-02-02T20:25:00.541Z,24.35
2019-02-02T20:27:31.102Z,20.57
2019-02-02T20:30:01.584Z,20.95
2019-02-02T20:32:32.027Z,23.52
2019-02-02T20:35:02.430Z,18.10
2019-02-02T20:37:32.906Z,20.65
2019-02-02T20:40:03.317Z,20.25
2019-02-02T20:42:33.735Z,20.40
2019-02-02T20:45:04.663Z,21.55
2019-02-02T20:47:35.109Z,23.50
2019-02-02T20:50:07.828Z,30.55
2019-02-02T20:52:47.023Z,21.77
2019-02-02T20:55:12.890Z,20.75
2019-02-02T20:57:45.891Z,21.02
2019-02-02T21:00:17.968Z,20.62
2019-02-02T21:02:48.491Z,22.35
2019-02-02T21:05:18.987Z,21.73
2019-02-02T21:07:49.505Z,20.02
2019-02-02T21:10:21.586Z,21.12
2019-02-02T21:12:52.088Z,20.05
2019-02-02T21:15:22.604Z,23.55
2019-02-02T21:17:53.230Z,18.77
2019-02-02T21:20:25.904Z,19.90
2019-02-02T21:22:56.359Z,25.02
2019-02-02T21:25:26.790Z,23.57
2019-02-02T21:27:57.293Z,24.32
2019-02-02T21:30:29.848Z,20.32
2019-02-02T21:33:00.298Z,20.88
2019-02-02T21:35:30.791Z,19.25
2019-02-02T21:38:01.283Z,27.32
2019-02-02T21:40:33.302Z,21.90
2019-02-02T21:43:03.757Z,25.40
2019-02-02T21:45:34.169Z,31.60
2019-02-02T21:48:04.797Z,29.40
2019-02-02T21:50:35.278Z,38.35
2019-02-02T21:53:05.917Z,36.75
2019-02-02T21:55:36.390Z,34.53
2019-02-02T21:58:07.070Z,37.08
2019-02-02T22:00:42.136Z,41.92
2019-02-02T22:03:12.649Z,30.48
2019-02-02T22:05:43.124Z,28.98
2019-02-02T22:08:13.581Z,29.23
2019-02-02T22:10:44.402Z,32.78
2019-02-02T22:13:15.310Z,30.52
2019-02-02T22:15:45.753Z,29.72
2019-02-02T22:18:16.207Z,27.82
2019-02-02T22:20:46.710Z,30.00
2019-02-02T22:23:18.038Z,31.80
2019-02-02T22:25:48.566Z,28.95
2019-02-02T22:28:18.986Z,35.90
2019-02-02T22:30:49.497Z,32.17
2019-02-02T22:33:19.875Z,30.90
2019-02-02T22:35:50.365Z,30.57
2019-02-02T22:38:21.076Z,30.48
2019-02-02T22:40:51.519Z,32.05
2019-02-02T22:43:22.022Z,32.65
2019-02-02T22:45:52.427Z,31.82
2019-02-02T22:48:22.871Z,34.98
2019-02-02T22:50:53.353Z,39.75
2019-02-02T22:53:23.777Z,32.50
2019-02-02T22:55:54.223Z,34.27
2019-02-02T22:58:24.679Z,32.95
2019-02-02T23:01:48.226Z,31.57
2019-02-02T23:05:02.717Z,32.17
2019-02-02T23:08:04.978Z,33.10
2019-02-02T23:10:58.229Z,31.97
2019-02-02T23:14:09.841Z,32.03
2019-02-02T23:16:40.275Z,32.45
2019-02-02T23:19:10.823Z,34.48
2019-02-02T23:21:41.271Z,32.75
2019-02-02T23:24:11.695Z,33.50
2019-02-02T23:26:42.104Z,36.35
2019-02-02T23:29:14.965Z,33.20
2019-02-02T23:31:45.419Z,33.53
2019-02-02T23:34:15.977Z,31.95
2019-02-02T23:36:52.620Z,32.33
2019-02-02T23:39:18.677Z,34.33
2019-02-02T23:41:49.062Z,31.30
2019-02-02T23:44:19.544Z,31.42
2019-02-02T23:46:50.038Z,32.53
2019-02-02T23:49:20.445Z,27.60
2019-02-02T23:51:50.900Z,33.42
2019-02-02T23:54:21.339Z,34.73
2019-02-02T23:56:51.798Z,29.80
2019-02-02T23:59:22.196Z,30.37
